sensor_id;sensor_type;location;lat;lon;timestamp;pressure;altitude;pressure_sealevel;temperature;humidity
72585;BME280;60618;40.084;32.908;2023-03-16T00:00:40;88761.53;;;6.59;86.85
72585;BME280;60618;40.084;32.908;2023-03-16T00:03:07;88753.53;;;6.53;87.07
72585;BME280;60618;40.084;32.908;2023-03-16T00:05:34;88752.41;;;6.60;87.48
72585;BME280;60618;40.084;32.908;2023-03-16T00:08:01;88751.16;;;6.55;87.35
72585;BME280;60618;40.084;32.908;2023-03-16T00:10:29;88748.06;;;6.57;87.07
72585;BME280;60618;40.084;32.908;2023-03-16T00:12:56;88749.75;;;6.60;86.83
72585;BME280;60618;40.084;32.908;2023-03-16T00:15:23;88748.66;;;6.26;88.19
72585;BME280;60618;40.084;32.908;2023-03-16T00:17:50;88744.09;;;6.26;88.34
72585;BME280;60618;40.084;32.908;2023-03-16T00:20:17;88748.19;;;6.48;88.01
72585;BME280;60618;40.084;32.908;2023-03-16T00:22:44;88742.75;;;6.37;87.80
72585;BME280;60618;40.084;32.908;2023-03-16T00:25:13;88733.97;;;6.25;87.90
72585;BME280;60618;40.084;32.908;2023-03-16T00:27:40;88731.47;;;6.16;88.80
72585;BME280;60618;40.084;32.908;2023-03-16T00:30:07;88740.97;;;6.28;88.42
72585;BME280;60618;40.084;32.908;2023-03-16T00:32:36;88738.88;;;6.32;87.90
72585;BME280;60618;40.084;32.908;2023-03-16T00:35:04;88737.47;;;6.16;88.79
72585;BME280;60618;40.084;32.908;2023-03-16T00:37:34;88742.03;;;6.16;88.47
72585;BME280;60618;40.084;32.908;2023-03-16T00:40:01;88735.69;;;6.08;89.00
72585;BME280;60618;40.084;32.908;2023-03-16T00:42:29;88735.63;;;6.02;89.00
72585;BME280;60618;40.084;32.908;2023-03-16T00:44:57;88736.97;;;6.12;88.75
72585;BME280;60618;40.084;32.908;2023-03-16T00:47:26;88730.41;;;6.08;88.41
72585;BME280;60618;40.084;32.908;2023-03-16T00:49:53;88738.19;;;6.17;88.05
72585;BME280;60618;40.084;32.908;2023-03-16T00:52:20;88747.19;;;6.25;88.41
72585;BME280;60618;40.084;32.908;2023-03-16T00:54:48;88750.91;;;6.13;88.16
72585;BME280;60618;40.084;32.908;2023-03-16T00:57:16;88754.59;;;6.21;88.04
72585;BME280;60618;40.084;32.908;2023-03-16T00:59:44;88749.84;;;6.25;87.41
72585;BME280;60618;40.084;32.908;2023-03-16T01:02:12;88750.91;;;6.33;87.96
72585;BME280;60618;40.084;32.908;2023-03-16T01:04:40;88759.16;;;6.41;87.15
72585;BME280;60618;40.084;32.908;2023-03-16T01:07:09;88756.31;;;6.44;87.71
72585;BME280;60618;40.084;32.908;2023-03-16T01:09:38;88746.38;;;6.19;87.97
72585;BME280;60618;40.084;32.908;2023-03-16T01:12:10;88756.06;;;6.22;87.87
72585;BME280;60618;40.084;32.908;2023-03-16T01:14:38;88757.38;;;6.32;87.99
72585;BME280;60618;40.084;32.908;2023-03-16T01:17:06;88760.22;;;6.29;87.58
72585;BME280;60618;40.084;32.908;2023-03-16T01:19:35;88751.84;;;6.30;87.91
72585;BME280;60618;40.084;32.908;2023-03-16T01:22:04;88748.50;;;6.35;87.55
72585;BME280;60618;40.084;32.908;2023-03-16T01:24:32;88755.13;;;6.25;87.26
72585;BME280;60618;40.084;32.908;2023-03-16T01:26:59;88749.72;;;6.14;88.05
72585;BME280;60618;40.084;32.908;2023-03-16T01:29:26;88752.22;;;6.23;87.89
72585;BME280;60618;40.084;32.908;2023-03-16T01:31:53;88755.66;;;6.29;87.42
72585;BME280;60618;40.084;32.908;2023-03-16T01:34:21;88753.81;;;6.35;87.12
72585;BME280;60618;40.084;32.908;2023-03-16T01:36:49;88752.69;;;6.42;87.14
72585;BME280;60618;40.084;32.908;2023-03-16T01:39:16;88756.31;;;6.44;86.78
72585;BME280;60618;40.084;32.908;2023-03-16T01:41:44;88752.34;;;6.54;86.45
72585;BME280;60618;40.084;32.908;2023-03-16T01:44:17;88756.56;;;6.67;86.04
72585;BME280;60618;40.084;32.908;2023-03-16T01:46:44;88761.72;;;6.55;86.46
72585;BME280;60618;40.084;32.908;2023-03-16T01:49:21;88756.44;;;6.55;86.35
72585;BME280;60618;40.084;32.908;2023-03-16T01:52:12;88756.38;;;6.50;86.26
72585;BME280;60618;40.084;32.908;2023-03-16T01:54:49;88752.91;;;6.38;86.98
72585;BME280;60618;40.084;32.908;2023-03-16T02:00:07;88751.22;;;5.50;91.23
72585;BME280;60618;40.084;32.908;2023-03-16T02:02:38;88750.38;;;5.59;91.77
72585;BME280;60618;40.084;32.908;2023-03-16T02:05:16;88752.25;;;5.73;91.23
72585;BME280;60618;40.084;32.908;2023-03-16T02:07:48;88751.84;;;5.60;91.29
72585;BME280;60618;40.084;32.908;2023-03-16T02:10:18;88746.78;;;5.77;90.51
72585;BME280;60618;40.084;32.908;2023-03-16T02:12:46;88741.19;;;5.89;89.74
72585;BME280;60618;40.084;32.908;2023-03-16T02:15:13;88741.34;;;6.01;89.42
72585;BME280;60618;40.084;32.908;2023-03-16T02:17:42;88744.53;;;6.05;89.32
72585;BME280;60618;40.084;32.908;2023-03-16T02:23:16;88745.88;;;6.15;88.60
72585;BME280;60618;40.084;32.908;2023-03-16T02:25:56;88733.56;;;5.91;89.34
72585;BME280;60618;40.084;32.908;2023-03-16T02:28:48;88732.78;;;6.06;88.66
72585;BME280;60618;40.084;32.908;2023-03-16T02:31:18;88728.34;;;6.17;88.57
72585;BME280;60618;40.084;32.908;2023-03-16T02:33:46;88729.41;;;6.25;87.65
72585;BME280;60618;40.084;32.908;2023-03-16T02:36:16;88725.53;;;6.21;87.58
72585;BME280;60618;40.084;32.908;2023-03-16T02:38:44;88722.72;;;6.10;87.94
72585;BME280;60618;40.084;32.908;2023-03-16T02:41:16;88724.72;;;6.15;87.62
72585;BME280;60618;40.084;32.908;2023-03-16T02:43:53;88721.88;;;5.98;88.14
72585;BME280;60618;40.084;32.908;2023-03-16T02:46:24;88727.91;;;5.84;88.83
72585;BME280;60618;40.084;32.908;2023-03-16T02:49:13;88731.19;;;5.79;88.76
72585;BME280;60618;40.084;32.908;2023-03-16T02:51:43;88727.69;;;6.02;88.10
72585;BME280;60618;40.084;32.908;2023-03-16T02:54:11;88731.72;;;6.18;86.95
72585;BME280;60618;40.084;32.908;2023-03-16T02:56:38;88729.06;;;5.97;87.59
72585;BME280;60618;40.084;32.908;2023-03-16T02:59:05;88730.56;;;5.49;89.82
72585;BME280;60618;40.084;32.908;2023-03-16T03:01:32;88724.91;;;5.41;90.49
72585;BME280;60618;40.084;32.908;2023-03-16T03:04:00;88725.81;;;5.38;91.24
72585;BME280;60618;40.084;32.908;2023-03-16T03:06:27;88713.66;;;5.26;90.86
72585;BME280;60618;40.084;32.908;2023-03-16T03:08:54;88727.13;;;5.13;92.65
72585;BME280;60618;40.084;32.908;2023-03-16T03:11:21;88722.22;;;5.06;92.97
72585;BME280;60618;40.084;32.908;2023-03-16T03:13:49;88716.59;;;5.13;92.59
72585;BME280;60618;40.084;32.908;2023-03-16T03:16:16;88714.56;;;4.93;93.55
72585;BME280;60618;40.084;32.908;2023-03-16T03:18:42;88698.00;;;4.93;94.78
72585;BME280;60618;40.084;32.908;2023-03-16T03:21:09;88709.13;;;4.82;94.28
72585;BME280;60618;40.084;32.908;2023-03-16T03:23:36;88699.75;;;4.81;95.14
72585;BME280;60618;40.084;32.908;2023-03-16T03:26:03;88699.81;;;4.57;96.00
72585;BME280;60618;40.084;32.908;2023-03-16T03:28:31;88706.94;;;4.51;96.37
72585;BME280;60618;40.084;32.908;2023-03-16T03:30:57;88699.25;;;4.38;97.12
72585;BME280;60618;40.084;32.908;2023-03-16T03:33:24;88702.03;;;4.20;97.62
72585;BME280;60618;40.084;32.908;2023-03-16T03:36:00;88706.50;;;4.14;98.55
72585;BME280;60618;40.084;32.908;2023-03-16T03:38:27;88712.25;;;4.03;98.43
72585;BME280;60618;40.084;32.908;2023-03-16T03:40:54;88704.59;;;3.90;98.80
72585;BME280;60618;40.084;32.908;2023-03-16T03:43:21;88715.13;;;3.90;99.62
72585;BME280;60618;40.084;32.908;2023-03-16T03:45:48;88719.34;;;3.73;99.91
72585;BME280;60618;40.084;32.908;2023-03-16T03:48:15;88716.75;;;3.88;100.00
72585;BME280;60618;40.084;32.908;2023-03-16T03:50:41;88718.44;;;4.00;100.00
72585;BME280;60618;40.084;32.908;2023-03-16T03:53:08;88719.63;;;3.99;100.00
72585;BME280;60618;40.084;32.908;2023-03-16T03:55:35;88715.06;;;3.99;100.00
72585;BME280;60618;40.084;32.908;2023-03-16T03:58:02;88718.97;;;4.04;100.00
72585;BME280;60618;40.084;32.908;2023-03-16T04:00:29;88722.06;;;4.03;100.00
72585;BME280;60618;40.084;32.908;2023-03-16T04:02:56;88729.09;;;4.06;100.00
72585;BME280;60618;40.084;32.908;2023-03-16T04:05:24;88726.72;;;4.08;100.00
72585;BME280;60618;40.084;32.908;2023-03-16T04:07:51;88719.22;;;4.15;100.00
72585;BME280;60618;40.084;32.908;2023-03-16T04:10:18;88728.38;;;4.20;100.00
72585;BME280;60618;40.084;32.908;2023-03-16T04:12:45;88735.50;;;4.28;100.00
72585;BME280;60618;40.084;32.908;2023-03-16T04:15:11;88731.97;;;4.32;100.00
72585;BME280;60618;40.084;32.908;2023-03-16T04:17:38;88738.63;;;4.42;100.00
72585;BME280;60618;40.084;32.908;2023-03-16T04:20:06;88730.50;;;4.84;100.00
72585;BME280;60618;40.084;32.908;2023-03-16T04:22:33;88749.34;;;5.06;100.00
72585;BME280;60618;40.084;32.908;2023-03-16T04:24:59;88752.41;;;5.34;100.00
72585;BME280;60618;40.084;32.908;2023-03-16T04:27:26;88742.28;;;5.48;100.00
72585;BME280;60618;40.084;32.908;2023-03-16T04:29:53;88756.03;;;5.52;99.74
72585;BME280;60618;40.084;32.908;2023-03-16T04:32:20;88756.97;;;5.49;99.20
72585;BME280;60618;40.084;32.908;2023-03-16T04:34:47;88751.84;;;5.60;99.02
72585;BME280;60618;40.084;32.908;2023-03-16T04:37:14;88758.31;;;5.59;97.96
72585;BME280;60618;40.084;32.908;2023-03-16T04:39:41;88753.75;;;5.45;96.69
72585;BME280;60618;40.084;32.908;2023-03-16T04:42:08;88749.72;;;5.64;95.13
72585;BME280;60618;40.084;32.908;2023-03-16T04:44:34;88749.88;;;5.40;94.04
72585;BME280;60618;40.084;32.908;2023-03-16T04:47:01;88762.97;;;5.34;94.16
72585;BME280;60618;40.084;32.908;2023-03-16T04:49:28;88760.97;;;4.70;95.55
72585;BME280;60618;40.084;32.908;2023-03-16T04:51:55;88765.28;;;4.44;98.16
72585;BME280;60618;40.084;32.908;2023-03-16T04:54:22;88757.09;;;4.42;98.86
72585;BME280;60618;40.084;32.908;2023-03-16T04:56:49;88755.91;;;4.43;98.95
72585;BME280;60618;40.084;32.908;2023-03-16T04:59:16;88755.97;;;4.34;99.62
72585;BME280;60618;40.084;32.908;2023-03-16T05:01:42;88752.19;;;4.49;99.77
72585;BME280;60618;40.084;32.908;2023-03-16T05:04:09;88756.22;;;4.60;99.22
72585;BME280;60618;40.084;32.908;2023-03-16T05:06:44;88765.84;;;4.63;99.05
72585;BME280;60618;40.084;32.908;2023-03-16T05:09:11;88768.22;;;4.61;98.80
72585;BME280;60618;40.084;32.908;2023-03-16T05:11:38;88772.19;;;4.56;98.35
72585;BME280;60618;40.084;32.908;2023-03-16T05:14:05;88772.53;;;4.49;99.33
72585;BME280;60618;40.084;32.908;2023-03-16T05:16:32;88763.28;;;4.53;99.70
72585;BME280;60618;40.084;32.908;2023-03-16T05:19:00;88776.13;;;4.75;99.41
72585;BME280;60618;40.084;32.908;2023-03-16T05:21:27;88765.50;;;4.84;98.71
72585;BME280;60618;40.084;32.908;2023-03-16T05:23:54;88767.63;;;4.95;98.75
72585;BME280;60618;40.084;32.908;2023-03-16T05:26:20;88773.53;;;5.05;98.42
72585;BME280;60618;40.084;32.908;2023-03-16T05:28:47;88781.16;;;4.88;98.12
72585;BME280;60618;40.084;32.908;2023-03-16T05:31:14;88767.34;;;4.78;98.77
72585;BME280;60618;40.084;32.908;2023-03-16T05:33:41;88773.25;;;4.88;99.67
72585;BME280;60618;40.084;32.908;2023-03-16T05:36:09;88775.72;;;4.92;99.39
72585;BME280;60618;40.084;32.908;2023-03-16T05:38:36;88780.09;;;4.95;99.65
72585;BME280;60618;40.084;32.908;2023-03-16T05:41:04;88764.81;;;4.99;99.28
72585;BME280;60618;40.084;32.908;2023-03-16T05:43:31;88777.38;;;5.04;99.61
72585;BME280;60618;40.084;32.908;2023-03-16T05:45:58;88781.72;;;5.07;99.81
72585;BME280;60618;40.084;32.908;2023-03-16T05:48:25;88781.66;;;5.16;99.53
72585;BME280;60618;40.084;32.908;2023-03-16T05:50:52;88778.28;;;5.30;99.20
72585;BME280;60618;40.084;32.908;2023-03-16T05:53:20;88779.28;;;5.33;98.06
72585;BME280;60618;40.084;32.908;2023-03-16T05:55:51;88769.50;;;5.39;98.81
72585;BME280;60618;40.084;32.908;2023-03-16T05:58:18;88777.38;;;5.48;98.16
72585;BME280;60618;40.084;32.908;2023-03-16T06:00:48;88786.97;;;5.66;97.85
72585;BME280;60618;40.084;32.908;2023-03-16T06:03:15;88782.75;;;5.74;98.15
72585;BME280;60618;40.084;32.908;2023-03-16T06:05:42;88776.59;;;5.77;97.04
72585;BME280;60618;40.084;32.908;2023-03-16T06:08:09;88785.50;;;5.80;97.24
72585;BME280;60618;40.084;32.908;2023-03-16T06:10:36;88789.34;;;5.93;96.13
72585;BME280;60618;40.084;32.908;2023-03-16T06:13:03;88788.22;;;5.85;96.81
72585;BME280;60618;40.084;32.908;2023-03-16T06:15:33;88790.59;;;5.98;96.97
72585;BME280;60618;40.084;32.908;2023-03-16T06:18:03;88795.66;;;6.02;96.67
72585;BME280;60618;40.084;32.908;2023-03-16T06:20:30;88788.56;;;6.08;96.33
72585;BME280;60618;40.084;32.908;2023-03-16T06:22:56;88804.56;;;6.19;96.05
72585;BME280;60618;40.084;32.908;2023-03-16T06:25:23;88792.53;;;6.18;95.54
72585;BME280;60618;40.084;32.908;2023-03-16T06:27:50;88799.00;;;6.17;95.20
72585;BME280;60618;40.084;32.908;2023-03-16T06:30:17;88800.84;;;6.11;94.95
72585;BME280;60618;40.084;32.908;2023-03-16T06:32:44;88799.13;;;6.08;95.34
72585;BME280;60618;40.084;32.908;2023-03-16T06:35:12;88805.28;;;6.19;95.34
72585;BME280;60618;40.084;32.908;2023-03-16T06:37:38;88801.41;;;6.35;95.42
72585;BME280;60618;40.084;32.908;2023-03-16T06:40:06;88796.59;;;6.54;95.21
72585;BME280;60618;40.084;32.908;2023-03-16T06:42:33;88792.94;;;6.51;94.48
72585;BME280;60618;40.084;32.908;2023-03-16T06:45:00;88796.97;;;6.47;95.10
72585;BME280;60618;40.084;32.908;2023-03-16T06:47:27;88796.78;;;6.71;94.18
72585;BME280;60618;40.084;32.908;2023-03-16T06:49:54;88800.09;;;6.86;93.57
72585;BME280;60618;40.084;32.908;2023-03-16T06:52:21;88795.31;;;6.90;93.06
72585;BME280;60618;40.084;32.908;2023-03-16T06:54:48;88802.13;;;7.23;93.26
72585;BME280;60618;40.084;32.908;2023-03-16T06:57:15;88804.22;;;7.39;91.20
72585;BME280;60618;40.084;32.908;2023-03-16T06:59:42;88804.69;;;7.37;89.35
72585;BME280;60618;40.084;32.908;2023-03-16T07:02:11;88815.50;;;7.91;89.76
72585;BME280;60618;40.084;32.908;2023-03-16T07:04:38;88810.28;;;8.40;87.38
72585;BME280;60618;40.084;32.908;2023-03-16T07:07:05;88812.06;;;8.60;85.28
72585;BME280;60618;40.084;32.908;2023-03-16T07:09:32;88807.31;;;8.75;85.07
72585;BME280;60618;40.084;32.908;2023-03-16T07:12:03;88808.63;;;9.02;85.47
72585;BME280;60618;40.084;32.908;2023-03-16T07:14:31;88811.28;;;9.07;82.15
72585;BME280;60618;40.084;32.908;2023-03-16T07:16:58;88824.44;;;8.74;81.51
72585;BME280;60618;40.084;32.908;2023-03-16T07:19:25;88819.66;;;8.84;81.92
72585;BME280;60618;40.084;32.908;2023-03-16T07:21:52;88818.03;;;9.03;80.01
72585;BME280;60618;40.084;32.908;2023-03-16T07:24:19;88818.56;;;9.18;80.93
72585;BME280;60618;40.084;32.908;2023-03-16T07:26:46;88814.81;;;8.82;80.27
72585;BME280;60618;40.084;32.908;2023-03-16T07:29:13;88822.31;;;8.84;81.11
72585;BME280;60618;40.084;32.908;2023-03-16T07:31:40;88821.38;;;8.44;81.80
72585;BME280;60618;40.084;32.908;2023-03-16T07:34:07;88817.03;;;8.41;83.84
72585;BME280;60618;40.084;32.908;2023-03-16T07:36:34;88817.63;;;8.24;82.72
72585;BME280;60618;40.084;32.908;2023-03-16T07:39:01;88815.25;;;8.32;81.96
72585;BME280;60618;40.084;32.908;2023-03-16T07:41:28;88811.69;;;8.35;82.35
72585;BME280;60618;40.084;32.908;2023-03-16T07:43:57;88810.75;;;8.44;83.54
72585;BME280;60618;40.084;32.908;2023-03-16T07:46:24;88821.03;;;8.31;82.89
72585;BME280;60618;40.084;32.908;2023-03-16T07:48:52;88816.25;;;8.35;83.40
72585;BME280;60618;40.084;32.908;2023-03-16T07:51:18;88822.50;;;8.32;82.84
72585;BME280;60618;40.084;32.908;2023-03-16T07:53:45;88814.91;;;8.50;82.31
72585;BME280;60618;40.084;32.908;2023-03-16T07:56:12;88817.88;;;8.26;82.76
72585;BME280;60618;40.084;32.908;2023-03-16T07:58:39;88818.53;;;8.53;82.42
72585;BME280;60618;40.084;32.908;2023-03-16T08:01:06;88814.94;;;8.56;81.18
72585;BME280;60618;40.084;32.908;2023-03-16T08:03:34;88807.34;;;8.86;81.12
72585;BME280;60618;40.084;32.908;2023-03-16T08:06:01;88819.31;;;9.19;79.89
72585;BME280;60618;40.084;32.908;2023-03-16T08:08:27;88827.22;;;9.02;79.76
72585;BME280;60618;40.084;32.908;2023-03-16T08:10:54;88822.56;;;8.86;78.93
72585;BME280;60618;40.084;32.908;2023-03-16T08:13:22;88828.66;;;9.03;80.09
72585;BME280;60618;40.084;32.908;2023-03-16T08:15:50;88824.91;;;9.37;79.80
72585;BME280;60618;40.084;32.908;2023-03-16T08:18:17;88820.13;;;9.64;77.40
72585;BME280;60618;40.084;32.908;2023-03-16T08:20:44;88822.03;;;9.47;78.25
72585;BME280;60618;40.084;32.908;2023-03-16T08:23:11;88821.94;;;9.13;77.98
72585;BME280;60618;40.084;32.908;2023-03-16T08:25:38;88816.06;;;8.98;79.08
72585;BME280;60618;40.084;32.908;2023-03-16T08:28:05;88815.09;;;8.90;79.32
72585;BME280;60618;40.084;32.908;2023-03-16T08:30:32;88816.81;;;8.98;79.05
72585;BME280;60618;40.084;32.908;2023-03-16T08:32:59;88819.03;;;9.11;78.46
72585;BME280;60618;40.084;32.908;2023-03-16T08:35:26;88818.41;;;9.44;79.60
72585;BME280;60618;40.084;32.908;2023-03-16T08:37:54;88812.59;;;9.51;77.99
72585;BME280;60618;40.084;32.908;2023-03-16T08:40:21;88815.50;;;9.48;78.65
72585;BME280;60618;40.084;32.908;2023-03-16T08:42:48;88814.03;;;9.52;77.04
72585;BME280;60618;40.084;32.908;2023-03-16T08:45:15;88815.03;;;9.60;78.11
72585;BME280;60618;40.084;32.908;2023-03-16T08:47:42;88810.22;;;9.64;76.03
72585;BME280;60618;40.084;32.908;2023-03-16T08:50:11;88808.28;;;9.71;77.70
72585;BME280;60618;40.084;32.908;2023-03-16T08:52:38;88797.91;;;9.89;77.94
72585;BME280;60618;40.084;32.908;2023-03-16T08:55:06;88804.19;;;9.92;76.77
72585;BME280;60618;40.084;32.908;2023-03-16T08:57:33;88802.47;;;9.66;78.25
72585;BME280;60618;40.084;32.908;2023-03-16T09:00:00;88798.59;;;9.56;78.85
72585;BME280;60618;40.084;32.908;2023-03-16T09:02:27;88812.16;;;9.64;78.46
72585;BME280;60618;40.084;32.908;2023-03-16T09:04:54;88801.72;;;9.60;77.24
72585;BME280;60618;40.084;32.908;2023-03-16T09:07:21;88803.94;;;9.62;75.76
72585;BME280;60618;40.084;32.908;2023-03-16T09:09:48;88796.44;;;9.77;75.88
72585;BME280;60618;40.084;32.908;2023-03-16T09:12:15;88798.38;;;9.71;76.05
72585;BME280;60618;40.084;32.908;2023-03-16T09:14:42;88809.97;;;9.68;76.50
72585;BME280;60618;40.084;32.908;2023-03-16T09:17:09;88803.94;;;9.62;74.88
72585;BME280;60618;40.084;32.908;2023-03-16T09:19:36;88806.06;;;9.52;75.71
72585;BME280;60618;40.084;32.908;2023-03-16T09:22:23;88796.88;;;9.36;74.82
72585;BME280;60618;40.084;32.908;2023-03-16T09:24:49;88794.22;;;9.42;75.31
72585;BME280;60618;40.084;32.908;2023-03-16T09:27:17;88799.31;;;9.51;74.86
72585;BME280;60618;40.084;32.908;2023-03-16T09:29:45;88801.75;;;9.55;76.13
72585;BME280;60618;40.084;32.908;2023-03-16T09:32:12;88789.63;;;9.43;76.73
72585;BME280;60618;40.084;32.908;2023-03-16T09:34:39;88791.31;;;9.29;78.96
72585;BME280;60618;40.084;32.908;2023-03-16T09:37:06;88794.41;;;9.16;77.76
72585;BME280;60618;40.084;32.908;2023-03-16T09:39:33;88796.34;;;9.10;77.06
72585;BME280;60618;40.084;32.908;2023-03-16T09:42:29;88793.88;;;9.01;77.80
72585;BME280;60618;40.084;32.908;2023-03-16T09:45:08;88796.75;;;8.92;76.95
72585;BME280;60618;40.084;32.908;2023-03-16T09:47:39;88789.53;;;8.98;78.60
72585;BME280;60618;40.084;32.908;2023-03-16T09:50:12;88784.72;;;9.02;77.48
72585;BME280;60618;40.084;32.908;2023-03-16T09:52:50;88788.13;;;9.08;75.21
72585;BME280;60618;40.084;32.908;2023-03-16T09:57:52;88793.50;;;9.36;75.12
72585;BME280;60618;40.084;32.908;2023-03-16T10:03:14;88794.22;;;9.42;75.80
72585;BME280;60618;40.084;32.908;2023-03-16T10:05:44;88797.63;;;9.54;75.70
72585;BME280;60618;40.084;32.908;2023-03-16T10:08:22;88794.25;;;9.53;70.99
72585;BME280;60618;40.084;32.908;2023-03-16T10:19:42;88790.13;;;9.69;72.51
72585;BME280;60618;40.084;32.908;2023-03-16T10:22:20;88788.22;;;9.64;73.53
72585;BME280;60618;40.084;32.908;2023-03-16T10:25:08;88791.09;;;9.55;71.93
72585;BME280;60618;40.084;32.908;2023-03-16T10:27:38;88786.00;;;9.51;73.39
72585;BME280;60618;40.084;32.908;2023-03-16T10:32:39;88781.44;;;9.63;71.19
72585;BME280;60618;40.084;32.908;2023-03-16T10:37:51;88780.47;;;9.66;68.04
72585;BME280;60618;40.084;32.908;2023-03-16T10:40:18;88785.56;;;9.64;66.94
72585;BME280;60618;40.084;32.908;2023-03-16T10:42:46;88774.41;;;9.60;66.43
72585;BME280;60618;40.084;32.908;2023-03-16T10:45:29;88774.91;;;9.58;66.98
72585;BME280;60618;40.084;32.908;2023-03-16T10:48:16;88765.97;;;9.56;65.31
72585;BME280;60618;40.084;32.908;2023-03-16T10:50:48;88766.94;;;9.53;67.09
72585;BME280;60618;40.084;32.908;2023-03-16T10:53:20;88765.72;;;9.48;66.95
72585;BME280;60618;40.084;32.908;2023-03-16T10:55:48;88761.63;;;9.53;66.82
72585;BME280;60618;40.084;32.908;2023-03-16T10:58:23;88765.00;;;9.53;66.69
72585;BME280;60618;40.084;32.908;2023-03-16T11:00:51;88761.38;;;9.56;66.59
72585;BME280;60618;40.084;32.908;2023-03-16T11:03:28;88767.66;;;9.53;66.75
72585;BME280;60618;40.084;32.908;2023-03-16T11:05:57;88764.03;;;9.51;69.11
72585;BME280;60618;40.084;32.908;2023-03-16T11:08:25;88766.44;;;9.49;70.01
72585;BME280;60618;40.084;32.908;2023-03-16T11:10:59;88773.69;;;9.48;69.15
72585;BME280;60618;40.084;32.908;2023-03-16T11:13:34;88765.47;;;9.52;70.14
72585;BME280;60618;40.084;32.908;2023-03-16T11:18:37;88767.91;;;9.50;69.61
72585;BME280;60618;40.084;32.908;2023-03-16T11:23:39;88769.13;;;9.54;69.81
72585;BME280;60618;40.084;32.908;2023-03-16T11:26:16;88772.03;;;9.62;69.85
72585;BME280;60618;40.084;32.908;2023-03-16T11:28:52;88777.56;;;9.53;69.18
72585;BME280;60618;40.084;32.908;2023-03-16T11:34:14;88775.41;;;9.57;69.92
72585;BME280;60618;40.084;32.908;2023-03-16T11:36:47;88783.38;;;9.46;72.24
72585;BME280;60618;40.084;32.908;2023-03-16T11:42:38;88771.28;;;9.56;69.08
72585;BME280;60618;40.084;32.908;2023-03-16T11:45:18;88771.06;;;9.71;69.24
72585;BME280;60618;40.084;32.908;2023-03-16T11:56:32;88762.09;;;10.02;69.28
72585;BME280;60618;40.084;32.908;2023-03-16T12:18:10;88776.84;;;10.36;66.16
72585;BME280;60618;40.084;32.908;2023-03-16T12:20:48;88772.94;;;10.15;67.23
72585;BME280;60618;40.084;32.908;2023-03-16T12:23:25;88785.31;;;10.18;66.12
72585;BME280;60618;40.084;32.908;2023-03-16T12:25:56;88772.50;;;10.16;67.00
72585;BME280;60618;40.084;32.908;2023-03-16T12:28:26;88775.16;;;10.11;65.20
72585;BME280;60618;40.084;32.908;2023-03-16T12:31:16;88774.41;;;10.05;66.00
72585;BME280;60618;40.084;32.908;2023-03-16T12:36:51;88778.06;;;9.68;72.00
72585;BME280;60618;40.084;32.908;2023-03-16T12:39:46;88784.09;;;9.63;71.75
72585;BME280;60618;40.084;32.908;2023-03-16T12:42:44;88772.25;;;9.64;69.95
72585;BME280;60618;40.084;32.908;2023-03-16T12:50:16;88794.75;;;9.80;70.11
72585;BME280;60618;40.084;32.908;2023-03-16T12:52:46;88787.72;;;9.65;67.10
72585;BME280;60618;40.084;32.908;2023-03-16T12:57:44;88799.78;;;9.61;66.05
72585;BME280;60618;40.084;32.908;2023-03-16T13:00:13;88803.66;;;9.60;67.08
72585;BME280;60618;40.084;32.908;2023-03-16T13:02:53;88799.78;;;9.61;67.14
72585;BME280;60618;40.084;32.908;2023-03-16T13:05:33;88801.28;;;9.62;67.74
72585;BME280;60618;40.084;32.908;2023-03-16T13:08:07;88799.81;;;9.55;67.02
72585;BME280;60618;40.084;32.908;2023-03-16T13:10:36;88800.25;;;9.43;68.78
72585;BME280;60618;40.084;32.908;2023-03-16T13:13:14;88804.56;;;9.23;70.48
72585;BME280;60618;40.084;32.908;2023-03-16T13:15:43;88814.00;;;9.19;71.67
72585;BME280;60618;40.084;32.908;2023-03-16T13:20:59;88817.59;;;9.10;72.20
72585;BME280;60618;40.084;32.908;2023-03-16T13:23:54;88818.56;;;9.18;72.75
72585;BME280;60618;40.084;32.908;2023-03-16T13:26:41;88804.31;;;9.21;73.15
72585;BME280;60618;40.084;32.908;2023-03-16T13:29:26;88823.19;;;9.29;74.73
72585;BME280;60618;40.084;32.908;2023-03-16T13:31:59;88807.69;;;9.10;72.67
72585;BME280;60618;40.084;32.908;2023-03-16T13:34:43;88805.00;;;9.05;75.31
72585;BME280;60618;40.084;32.908;2023-03-16T13:37:13;88800.66;;;9.02;72.41
72585;BME280;60618;40.084;32.908;2023-03-16T13:39:41;88803.09;;;9.11;72.05
72585;BME280;60618;40.084;32.908;2023-03-16T13:42:17;88785.75;;;9.27;71.84
72585;BME280;60618;40.084;32.908;2023-03-16T13:44:45;88795.19;;;9.39;68.62
72585;BME280;60618;40.084;32.908;2023-03-16T13:47:16;88795.69;;;9.60;70.28
72585;BME280;60618;40.084;32.908;2023-03-16T13:49:49;88798.84;;;9.64;71.88
72585;BME280;60618;40.084;32.908;2023-03-16T13:52:30;88788.22;;;9.64;68.93
72585;BME280;60618;40.084;32.908;2023-03-16T13:54:58;88794.47;;;9.61;67.78
72585;BME280;60618;40.084;32.908;2023-03-16T13:57:28;88799.78;;;9.38;68.34
72585;BME280;60618;40.084;32.908;2023-03-16T14:00:23;88788.63;;;9.34;67.78
72585;BME280;60618;40.084;32.908;2023-03-16T14:02:58;88811.38;;;9.35;67.68
72585;BME280;60618;40.084;32.908;2023-03-16T14:05:28;88798.34;;;9.49;68.53
72585;BME280;60618;40.084;32.908;2023-03-16T14:07:56;88801.47;;;9.42;67.91
72585;BME280;60618;40.084;32.908;2023-03-16T14:10:27;88803.66;;;9.60;68.04
72585;BME280;60618;40.084;32.908;2023-03-16T14:12:56;88804.16;;;9.64;67.13
72585;BME280;60618;40.084;32.908;2023-03-16T14:15:25;88806.56;;;9.51;66.82
72585;BME280;60618;40.084;32.908;2023-03-16T14:18:11;88808.72;;;9.41;66.80
72585;BME280;60618;40.084;32.908;2023-03-16T14:20:39;88802.44;;;9.38;67.81
72585;BME280;60618;40.084;32.908;2023-03-16T14:23:23;88803.38;;;9.30;68.28
72585;BME280;60618;40.084;32.908;2023-03-16T14:25:51;88803.38;;;9.30;68.69
72585;BME280;60618;40.084;32.908;2023-03-16T14:28:21;88799.75;;;9.27;68.84
72585;BME280;60618;40.084;32.908;2023-03-16T14:30:54;88806.75;;;9.30;68.95